• Join FlightAware (Why Join?)
  • Login
  • US Flag 
10:13AM EDT


 

Airport Tracker/Info


-or-


 

Live Flight TrackerFlight Track Log ✈ AVN51 ✈ 23-Oct-2013 ✈ NZAA / AKL - NVVV / VLI

Flight Track Log - Related Links

Times and Time Zones

All times are in EDT time to prevent confusion due to time zone crossing. See the AVN51 flight status page for this flight to view local times or setup timezone preferences in your user account.

Time Position Orientation Groundspeed Altitude Reporting Facility
EDT Latitude Longitude Course Direction KTS MPH feet Rate Location/Type
08:06PM -37.0080 174.7800 270° West  Level FlightAware
08:08PM -36.8147 174.7009 342° North  Level Estimated
08:14PM -36.8039 174.7176 342° North  Level Estimated
08:14PM -37.0140 174.7790 253° West 155 178  Level FlightAware
08:15PM -37.0167 174.7667 253° West 117 135 1,860 Level New Zealand
08:15PM -37.0190 174.7610 251° West 157 181 600 2,640 Climbing FlightAware
08:15PM -37.0250 174.7400 250° West 155 178 1,500 1,620 Climbing FlightAware
08:16PM -37.0310 174.7170 252° West 172 198 2,000 1,380 Climbing FlightAware
08:16PM -37.0410 174.6820 250° West 197 227 2,900 1,800 Climbing FlightAware
08:17PM -37.0510 174.6480 250° West 204 235 4,000 1,620 Climbing FlightAware
08:17PM -37.0590 174.6190 251° West 234 269 4,400 1,020 Climbing FlightAware
08:17PM -37.0630 174.6060 249° West 245 282 4,600 1,800 Climbing FlightAware
08:18PM -37.0730 174.5710 250° West 251 289 5,500 2,460 Climbing FlightAware
08:18PM -37.0730 174.5340 270° West 258 297 6,700 2,760 Climbing FlightAware
08:19PM -37.0540 174.5070 270° West 269 310 7,800 2,580 Climbing FlightAware
08:19PM -37.0333 174.5000 270° West 276 318 2,460 Descending New Zealand
08:19PM -37.0190 174.4870 335° Northwest 282 325 9,100 9,180 Climbing FlightAware
08:20PM -36.9667 174.4667 335° Northwest 289 333 1,800 Descending New Zealand
08:20PM -36.9530 174.4570 335° Northwest 321 369 10,600 19,980 Climbing FlightAware
08:20PM -36.9140 174.4440 345° North 350 403 11,000 1,440 Climbing FlightAware
08:21PM -36.8750 174.4300 344° North 364 419 11,800 2,280 Climbing FlightAware
08:22PM -36.7830 174.3970 344° North 369 425 14,100 2,460 Climbing FlightAware
08:22PM -36.7667 174.3833 344° North 377 434 2,460 Descending New Zealand
08:22PM -36.7240 174.3760 344° North 384 442 15,500 13,560 Climbing FlightAware
08:23PM -36.6667 174.3500 344° North 384 442 2,580 Descending New Zealand
08:23PM -36.6300 174.3420 344° North 389 448 17,900 15,060 Climbing FlightAware
08:24PM -36.5500 174.3167 344° North 403 464 1,920 Descending New Zealand
08:24PM -36.5210 174.3030 344° North 405 466 19,900 19,020 Climbing FlightAware
08:25PM -36.4333 174.2667 344° North 420 483 1,980 Descending New Zealand
08:25PM -36.4260 174.2690 344° North 415 478 21,600 43,320 Climbing FlightAware
08:25PM -36.3790 174.2520 344° North 419 482 22,400 1,800 Climbing FlightAware
08:26PM -36.3167 174.2333 344° North 431 496 1,680 Descending New Zealand
08:26PM -36.2930 174.2220 344° North 435 501 23,700 21,660 Climbing FlightAware
08:27PM -36.2000 174.1833 344° North 440 506 1,740 Descending New Zealand
08:27PM -36.1850 174.1840 344° North 435 501 25,300 26,580 Climbing FlightAware
08:28PM -36.0840 174.1480 344° North 454 522 26,600 1,320 Climbing FlightAware
08:28PM -36.0833 174.1500 344° North 450 518 1,200 Descending New Zealand
08:29PM -35.9720 174.1080 344° North 465 535 27,700 16,680 Climbing FlightAware
08:29PM -35.9500 174.1000 344° North 465 535 1,200 Descending New Zealand
08:30PM -35.8680 174.0710 344° North 472 543 28,700 20,700 Climbing FlightAware
08:30PM -35.8333 174.0500 344° North 473 544 1,320 Descending New Zealand
08:30PM -35.7740 174.0380 344° North 466 536 29,700 25,980 Climbing FlightAware
08:31PM -35.7000 174.0167 344° North 474 545 1,380 Descending New Zealand
08:31PM -35.6780 174.0050 344° North 466 536 30,800 29,520 Climbing FlightAware
08:32PM -35.5667 173.9667 344° North 474 545 1,260 Descending New Zealand
08:32PM -35.5600 173.9640 344° North 466 536 32,000 56,040 Climbing FlightAware
08:33PM -35.4960 173.9410 344° North 465 535 32,700 1,200 Climbing FlightAware
08:33PM -35.3910 173.9050 344° North 472 543 33,700 1,140 Climbing FlightAware
08:34PM -35.3167 173.8667 344° North 473 544 1,080 Descending New Zealand
08:34PM -35.2860 173.8680 344° North 466 536 34,600 43,980 Climbing FlightAware
08:35PM -35.2110 173.8430 344° North 466 536 35,200 900 Climbing FlightAware
08:35PM -35.1833 173.8333 344° North 474 545 840 Descending New Zealand
08:35PM -35.1380 173.8180 344° North 467 537 35,700 30,000 Climbing FlightAware
08:36PM -35.0500 173.7833 344° North 476 548 300 Descending New Zealand
08:36PM -35.0310 173.7810 344° North 470 541 36,000 35,400 Climbing FlightAware
08:37PM -34.9230 173.7440 344° North 467 537 36,000  Level FlightAware
08:37PM -34.9167 173.7333 344° North 475 547  Descending New Zealand
08:38PM -34.8300 173.7120 344° North 467 537 36,000 22,680 Climbing FlightAware
08:38PM -34.7833 173.7000 344° North 474 545  Descending New Zealand
08:39PM -34.7220 173.6750 344° North 465 535 36,000 22,920 Climbing FlightAware
08:40PM -34.5960 173.6320 344° North 471 542 36,000  Level FlightAware
08:40PM -34.5030 173.6000 344° North 469 540 36,000  Level FlightAware
08:41PM -34.4000 173.5667 344° North 468 539  Descending New Zealand
08:41PM -34.3880 173.5610 344° North 469 540 36,000 74,460 Climbing FlightAware
08:42PM -34.3460 173.5470 345° North 469 540 36,000  Level FlightAware
08:42PM -34.2833 173.5167 345° North 470 541  Descending New Zealand
08:42PM -34.2820 173.5250 345° North 470 541 36,000 39,960 Climbing FlightAware
08:43PM -34.1670 173.4870 345° North 465 535 36,000  Level FlightAware
08:43PM -34.1500 173.4833 345° North 472 543  Descending New Zealand
08:44PM -34.0700 173.4540 344° North 466 536 36,000 24,240 Climbing FlightAware
08:45PM -33.9630 173.4180 344° North 467 537 36,000  Level FlightAware
08:45PM -33.8833 173.3833 344° North 475 547  Descending New Zealand
08:46PM -33.8580 173.3830 344° North 468 539 36,000 32,700 Climbing FlightAware
08:46PM -33.7667 173.3500 344° North 474 545  Descending New Zealand
08:46PM -33.7630 173.3470 344° North 475 547 36,000 52,680 Climbing FlightAware
08:47PM -33.6930 173.3200 342° North 474 545 36,000  Level FlightAware
08:48PM -33.6333 173.3000 342° North 463 533  Descending New Zealand
08:48PM -33.5900 173.2820 342° North 474 545 36,000 36,000 Climbing FlightAware
08:48PM -33.5000 173.2500 342° North 473 544  Descending New Zealand
08:49PM -33.4890 173.2450 342° North 473 544 36,000 61,680 Climbing FlightAware
08:49PM -33.4420 173.2280 342° North 472 543 36,000  Level FlightAware
08:49PM -33.3667 173.2000 342° North 472 543  Descending New Zealand
08:50PM -33.3833 173.2000 342° North 463 533 58,320 Level New Zealand
08:50PM -33.3290 173.1840 342° North 472 543 36,000 28,380 Climbing FlightAware
08:51PM -33.2430 173.1500 342° North 472 543 36,000  Level FlightAware
08:51PM -33.1810 173.1260 342° North 472 543 36,000  Level FlightAware
08:51PM -33.1167 173.1000 342° North 469 540  Descending New Zealand
08:52PM -33.0750 173.0850 342° North 472 543 36,000 20,160 Climbing FlightAware
08:53PM -32.9333 173.0333 342° North 409 471  Descending New Zealand
08:53PM -32.9900 173.0530 360° North 472 543 36,000 27,000 Climbing FlightAware
08:54PM -32.8833 173.0333 360° North 463 533  Descending New Zealand
08:54PM -32.8810 173.0100 342° North 472 543 36,000 24,240 Climbing FlightAware
08:55PM -32.7960 172.9770 342° North 472 543 36,000  Level FlightAware
08:56PM -32.6333 172.9333 342° North 463 533  Descending New Zealand
08:56PM -32.7120 172.9450 342° North 472 543 36,000 32,700 Climbing FlightAware
08:57PM -32.6250 172.9110 342° North 472 543 36,000  Level FlightAware
08:57PM -32.5400 172.8790 342° North 472 543 36,000  Level FlightAware
08:58PM -32.4000 172.8500 342° North 463 533  Descending New Zealand
08:58PM -32.4540 172.8450 342° North 472 543 36,000 420 Climbing FlightAware
09:00PM -32.1500 172.7667 342° North 463 533 -60 Descending New Zealand
09:02PM -31.9000 172.6667 341° North 463 533 420 Level New Zealand
09:04PM -31.6500 172.5833 344° North 463 533 420 Level New Zealand
09:06PM -31.4167 172.5000 343° North 463 533 480 Level New Zealand
09:08PM -31.1667 172.4167 344° North 463 533 480 Level New Zealand
09:10PM -30.9167 172.3167 341° North 463 533 480 Level New Zealand
09:12PM -30.6667 172.2333 344° North 463 533 480 Level New Zealand
09:14PM -30.4167 172.1500 344° North 463 533 540 Level New Zealand
09:16PM -30.1667 172.0667 344° North 463 533 540 Level New Zealand
09:18PM -29.9333 171.9833 343° North 463 533 540 Level New Zealand
09:20PM -29.6833 171.9000 344° North 463 533 600 Level New Zealand
09:22PM -29.4333 171.8167 344° North 432 497 600 Level New Zealand
09:24PM -29.3167 171.7833 346° North 447 514 660 Level New Zealand
09:26PM -29.0833 171.7000 343° North 447 514 660 Level New Zealand
09:28PM -28.8333 171.6167 344° North 447 514 720 Level New Zealand
09:30PM -28.6000 171.5333 343° North 447 514 720 Level New Zealand
09:32PM -28.3667 171.4667 346° North 447 514 780 Level New Zealand
09:34PM -28.1167 171.3833 344° North 447 514 840 Level New Zealand
09:36PM -27.8833 171.3000 342° North 447 514 840 Level New Zealand
09:38PM -27.6333 171.2167 344° North 447 514 900 Level New Zealand
09:40PM -27.4000 171.1500 346° North 447 514 960 Level New Zealand
09:42PM -27.1667 171.0667 342° North 447 514 1,020 Level New Zealand
09:44PM -26.9167 171.0000 347° North 447 514 1,080 Level New Zealand
09:46PM -26.6833 170.9167 342° North 447 514 1,200 Level New Zealand
09:48PM -26.4333 170.8333 343° North 447 514 1,260 Level New Zealand
09:50PM -26.2000 170.7667 346° North 447 514 1,380 Level New Zealand
09:52PM -25.9667 170.6833 342° North 447 514 1,500 Level New Zealand
09:54PM -25.7914 170.6322 345° North  Level FlightAware Approximate
10:01PM -25.1723 170.4323 344° North  Level FlightAware Approximate
10:02PM -25.0840 170.4036 344° North  Level FlightAware Approximate
10:03PM -24.9956 170.3750 344° North  Level FlightAware Approximate
10:04PM -24.9072 170.3463 344° North  Level FlightAware Approximate
10:05PM -24.8188 170.3178 344° North  Level FlightAware Approximate
10:06PM -24.7304 170.2892 344° North  Level FlightAware Approximate
10:07PM -24.6420 170.2607 344° North  Level FlightAware Approximate
10:08PM -24.5536 170.2323 344° North  Level FlightAware Approximate
10:09PM -24.4652 170.2038 344° North  Level FlightAware Approximate
10:10PM -24.3768 170.1755 344° North  Level FlightAware Approximate
10:11PM -24.2883 170.1471 344° North  Level FlightAware Approximate
10:11PM -24.0100 170.0590 344° North 391 450 33,000  Level FlightAware
10:11PM -23.9380 170.0360 344° North 390 449 33,000  Level FlightAware
10:12PM -23.8540 170.0080 343° North 390 449 33,000  Level FlightAware
10:13PM -23.7680 169.9820 345° North 388 447 33,000  Level FlightAware
10:14PM -23.6760 169.9510 343° North 388 447 33,000  Level FlightAware
10:15PM -23.5880 169.9240 344° North 388 447 33,000  Level FlightAware
10:16PM -23.5180 169.9010 343° North 388 447 33,000  Level FlightAware
10:16PM -23.4480 169.8770 343° North 388 447 33,000  Level FlightAware
10:17PM -23.3610 169.8480 343° North 388 447 33,000  Level FlightAware
10:18PM -23.2500 169.8180 346° North 392 451 33,000  Level FlightAware
10:19PM -23.1860 169.7980 344° North 393 452 33,000  Level FlightAware
10:20PM -23.0940 169.7670 343° North 393 452 33,000  Level FlightAware
10:20PM -23.0260 169.7440 343° North 393 452 33,000  Level FlightAware
10:21PM -22.9760 169.7280 344° North 393 452 33,000  Level FlightAware
10:22PM -22.8460 169.6910 345° North 392 451 33,000  Level FlightAware
10:22PM -22.7810 169.6700 343° North 391 450 33,000  Level FlightAware
10:23PM -22.7010 169.6440 343° North 391 450 33,000  Level FlightAware
10:24PM -22.6290 169.6200 343° North 391 450 33,000  Level FlightAware
10:25PM -22.5230 169.5850 343° North 391 450 33,000  Level FlightAware
10:26PM -22.4320 169.5550 343° North 391 450 33,000  Level FlightAware
10:27PM -22.3970 169.5430 342° North 391 450 33,000  Level FlightAware
10:27PM -22.3440 169.5260 343° North 391 450 33,000  Level FlightAware
10:28PM -22.2560 169.4970 343° North 391 450 33,000  Level FlightAware
10:29PM -22.1850 169.4730 343° North 391 450 33,000  Level FlightAware
10:30PM -22.1130 169.4500 344° North 391 450 33,000  Level FlightAware
10:31PM -22.0420 169.4260 343° North 391 450 33,000  Level FlightAware
10:32PM -21.7770 169.3590 347° North 389 448 33,000  Level FlightAware
10:33PM -21.7020 169.3360 344° North 385 443 33,000  Level FlightAware
10:34PM -21.5940 169.3020 344° North 386 444 33,000  Level FlightAware
10:35PM -21.5240 169.2790 343° North 386 444 33,000  Level FlightAware
10:36PM -21.4180 169.2490 345° North 388 447 33,000  Level FlightAware
10:37PM -21.3290 169.2190 343° North 388 447 33,000  Level FlightAware
10:37PM -21.2940 169.2080 344° North 388 447 33,000  Level FlightAware
10:38PM -21.2070 169.1790 343° North 388 447 33,000  Level FlightAware
10:39PM -21.1370 169.1560 343° North 388 447 33,000  Level FlightAware
10:40PM -21.0490 169.1280 343° North 388 447 33,000  Level FlightAware
10:40PM -21.0140 169.1160 342° North 388 447 33,000  Level FlightAware
10:41PM -20.9440 169.0930 343° North 388 447 33,000  Level FlightAware
10:42PM -20.8920 169.0760 343° North 388 447 33,000  Level FlightAware
10:42PM -20.8390 169.0590 343° North 388 447 33,000  Level FlightAware
10:43PM -20.7850 169.0410 343° North 388 447 33,000  Level FlightAware
10:44PM -20.6980 169.0130 343° North 388 447 33,000  Level FlightAware
10:45PM -20.6100 168.9840 343° North 388 447 33,000  Level FlightAware
10:45PM -20.5580 168.9670 343° North 388 447 33,000  Level FlightAware
10:48PM -20.3667 168.9122 345° North  Level FlightAware Approximate
10:49PM -20.2777 168.8868 345° North  Level FlightAware Approximate
10:50PM -20.1888 168.8613 345° North  Level FlightAware Approximate
10:51PM -20.0998 168.8360 345° North  Level FlightAware Approximate
10:52PM -20.0108 168.8106 345° North  Level FlightAware Approximate
10:53PM -19.9218 168.7853 345° North  Level FlightAware Approximate
10:54PM -19.8328 168.7600 345° North  Level FlightAware Approximate
10:55PM -19.7438 168.7347 345° North  Level FlightAware Approximate
10:56PM -19.6548 168.7095 345° North  Level FlightAware Approximate
10:57PM -19.5658 168.6843 345° North  Level FlightAware Approximate
10:58PM -19.4768 168.6591 345° North  Level FlightAware Approximate
10:59PM -19.3878 168.6339 345° North  Level FlightAware Approximate
11:00PM -19.2991 168.6104 348° North  Level FlightAware Approximate
11:01PM -19.2090 168.5901 348° North  Level FlightAware Approximate
11:02PM -19.1189 168.5697 348° North  Level FlightAware Approximate
11:03PM -19.0288 168.5494 348° North  Level FlightAware Approximate
11:04PM -18.9387 168.5291 348° North  Level FlightAware Approximate
11:05PM -18.8486 168.5089 348° North  Level FlightAware Approximate
11:06PM -18.7585 168.4886 348° North  Level FlightAware Approximate
11:07PM -18.6684 168.4684 348° North  Level FlightAware Approximate
11:08PM -18.5783 168.4482 348° North  Level FlightAware Approximate
11:09PM -18.4882 168.4280 348° North  Level FlightAware Approximate
11:10PM -18.3981 168.4078 348° North  Level FlightAware Approximate
11:11PM -18.3080 168.3877 348° North  Level FlightAware Approximate
11:12PM -18.2179 168.3676 348° North  Level FlightAware Approximate
11:13PM -18.1277 168.3475 348° North  Level FlightAware Approximate
11:14PM -18.0376 168.3274 348° North  Level FlightAware Approximate
11:15PM -17.9475 168.3073 348° North  Level FlightAware Approximate
11:16PM -17.8574 168.2873 348° North  Level FlightAware Approximate
11:17PM -17.7673 168.2673 348° North  Level FlightAware Approximate
11:18PM -17.6993 168.3198 348° North  Level Estimated
11:19PM -17.6993 168.3198 348° North  Level Estimated
11:20PM -17.6993 168.3198 348° North  Level Estimated
11:21PM -17.6993 168.3198 348° North  Level Estimated
11:22PM -17.6993 168.3198 348° North  Level Estimated
11:23PM -17.6993 168.3198 348° North  Level Estimated
11:24PM -17.6993 168.3198 348° North  Level Estimated
11:25PM -17.6993 168.3198 348° North  Level Estimated
11:26PM -17.6993 168.3198 348° North  Level Estimated
11:27PM -17.6993 168.3198 348° North  Level Estimated
11:28PM -17.6993 168.3198 348° North  Level Estimated
11:29PM -17.6993 168.3198 348° North  Level Estimated
11:30PM -17.6993 168.3198 348° North  Level Estimated
11:31PM -17.6993 168.3198 348° North  Level Estimated
11:32PM -17.6993 168.3198 348° North  Level Estimated
11:33PM -17.6993 168.3198 348° North  Level Estimated